首页
METAR-TAF:

METAR-TAF

机场 :

Churchill, 曼尼托巴, 加拿大

纬度: 58-44N, 经度: 094-04W, 海拔: 28米

当前天气观测

该预报发布于10分钟前的07:00 UTC
风速7节,风向西转西南
温度 7°C
湿度 87%
气压 1013 hPa
能見度: 24.1公里
散云层高于27000英尺

METAR: CYYQ 180700Z 24007KT 15SM SCT270 07/05 A2992 RMK CI3 SLP134

时间: 02:10 (07:10 UTC)

预报

该预报发布于1小时和28分钟前的05:42 UTC
预报有效从18日的 06点(UTC)到 19日的 06点(UTC)
风速6节,风向西转西南
能見度: 10公里
少量云层高于2000英尺
散云层高于20000英尺
从 18日的 1800点(UTC)
风速12节,风向西转西南
能見度: 10公里
散云层高于8000英尺
多云层高于20000英尺
从 18日的 2200点(UTC)
风速15节,风向,有时为30节阵风
能見度: 10公里
散云层高于2000英尺
多云层高于4000英尺
阴天层高于8000英尺
小阵雨
从 19日的 0200点(UTC)
风速15节,风向
能見度: 9.7公里
散云层高于600英尺
多云层高于1200英尺
轻雾

TAF: CYYQ 180542Z 1806/1906 24006KT P6SM FEW020 SCT200 FM181800 24012KT P6SM SCT080 BKN200 FM182200 36015G30KT P6SM -SHRA SCT020 BKN040 OVC080 FM190200 36015KT 6SM BR SCT006 BKN012 RMK NXT FCST BY 181200Z

超过4000个机场的气象观测和天气预报(METAR&TAF报告)。

可查询的气象台以黄色和红色小点在地图上表示。

将鼠标移到小点上方,可查看气象台名称。

然后点击查看天气观测和预报。

如需切换地图:点击带黑十字的绿色按钮放大地图;点击带横线的绿色按钮缩小地图;或者点击绿色箭头查看邻近地区的地图。


METAR-TAF: